This is the latest recevied weather packets stored in our database for station/object KD5UMO-1. If no packets are shown the sender has not sent any weather packets the latest 10 day(s).
| Time | Temp. | Humidity | Pressure | Rain* | Wind** | Luminosity | Snow |
|---|---|---|---|---|---|---|---|
| 1777054791 | 29.44° C | 63% | 1005.7 hPa | 0 mm | - | 952 W/m² | - |
| 1777054489 | 29.44° C | 63% | 1005.8 hPa | 0 mm | - | 988 W/m² | - |
| 1777054187 | 29.44° C | 62% | 1005.9 hPa | 0 mm | - | 293 W/m² | - |
| 1777053884 | 28.89° C | 64% | 1006 hPa | 0 mm | - | 1061 W/m² | - |
| 1777053579 | 28.89° C | 63% | 1006.2 hPa | 0 mm | - | 444 W/m² | - |
| 1777053273 | 28.33° C | 64% | 1006.1 hPa | 0 mm | - | 383 W/m² | - |
| 1777052970 | 28.33° C | 64% | 1006.2 hPa | 0 mm | - | 964 W/m² | - |
| 1777052666 | 28.89° C | 64% | 1006.3 hPa | 0 mm | - | 945 W/m² | - |
| 1777052366 | 28.33° C | 66% | 1006.2 hPa | 0 mm | - | 868 W/m² | - |
| 1777052063 | 28.89° C | 65% | 1006 hPa | 0 mm | - | 990 W/m² | - |
| 1777051760 | 28.89° C | 64% | 1006 hPa | 0 mm | - | 298 W/m² | - |
| 1777051456 | 28.33° C | 65% | 1006.1 hPa | 0 mm | - | 904 W/m² | - |
| 1777051152 | 27.78° C | 69% | 1006.2 hPa | 0 mm | - | 899 W/m² | - |
| 1777050848 | 27.78° C | 68% | 1006.3 hPa | 0 mm | - | 992 W/m² | - |
| 1777050544 | 27.78° C | 67% | 1006.5 hPa | 0 mm | - | 975 W/m² | - |
| 1777050242 | 27.22° C | 70% | 1006.4 hPa | 0 mm | - | 383 W/m² | - |
| 1777049938 | 27.22° C | 69% | 1006.5 hPa | 0 mm | - | 941 W/m² | - |
| 1777049638 | 27.78° C | 68% | 1006.5 hPa | 0 mm | - | 810 W/m² | - |
| 1777049336 | 27.78° C | 68% | 1006.6 hPa | 0 mm | - | 351 W/m² | - |
| 1777049033 | 27.22° C | 71% | 1006.6 hPa | 0 mm | - | 375 W/m² | - |
| 1777048729 | 26.67° C | 71% | 1006.7 hPa | 0 mm | - | 424 W/m² | - |
| 1777048428 | 27.22° C | 72% | 1006.6 hPa | 0 mm | - | 294 W/m² | - |
| 1777048128 | 26.11° C | 73% | 1006.7 hPa | 0 mm | - | 344 W/m² | - |
| 1777047824 | 26.67° C | 73% | 1006.9 hPa | 0 mm | - | 944 W/m² | - |
| 1777047521 | 26.67° C | 74% | 1006.6 hPa | 0 mm | - | 337 W/m² | - |
* Rain latest hour (hover to see other rain measurements)
** Current wind speed in m/s (hover to see current wind gust speed)